Time;durP1;ratioP1;P1;durP2;ratioP2;P2;SDS_P1;SDS_P2;PMS_P1;PMS_P2;Temp;Humidity;BMP_temperature;BMP_pressure;BME280_temperature;BME280_humidity;BME280_pressure;Samples;Min_cycle;Max_cycle;Signal;HPM_P1;HPM_P2
2022/07/10 00:00:32;;;;;;;10.50;1.70;;;;;;;;;;4987697;28;20057;-65
2022/07/10 00:03:00;;;;;;;11.32;1.88;;;;;;;;;;4987599;28;20050;-64
2022/07/10 00:05:27;;;;;;;7.85;1.90;;;;;;;;;;4987865;28;20058;-65
2022/07/10 00:07:55;;;;;;;7.10;1.45;;;;;;;;;;4983642;28;20043;-65
2022/07/10 00:10:22;;;;;;;8.02;1.52;;;;;;;;;;4985663;28;20054;-65
2022/07/10 00:12:50;;;;;;;9.68;1.60;;;;;;;;;;4965848;28;20058;-64
2022/07/10 00:15:17;;;;;;;8.00;1.50;;;;;;;;;;4988095;28;20054;-65
2022/07/10 00:17:45;;;;;;;15.57;1.85;;;;;;;;;;4987286;28;20045;-66
2022/07/10 00:20:14;;;;;;;9.77;1.90;;;;;;;;;;4987083;28;20852;-66
2022/07/10 00:22:41;;;;;;;10.23;2.13;;;;;;;;;;4987258;28;20456;-65
2022/07/10 00:25:10;;;;;;;9.90;1.60;;;;;;;;;;4988588;28;20054;-65
2022/07/10 00:27:37;;;;;;;8.90;1.83;;;;;;;;;;4987770;28;20760;-65
2022/07/10 00:30:05;;;;;;;10.80;1.67;;;;;;;;;;4975030;28;20053;-65
2022/07/10 00:32:32;;;;;;;11.13;2.13;;;;;;;;;;4986876;28;20842;-65
2022/07/10 00:35:01;;;;;;;11.60;1.50;;;;;;;;;;4984620;28;20050;-65
2022/07/10 00:37:30;;;;;;;10.82;2.08;;;;;;;;;;4984650;28;20046;-65
2022/07/10 00:39:57;;;;;;;11.75;1.70;;;;;;;;;;4964589;28;20058;-65
2022/07/10 00:42:24;;;;;;;8.52;1.95;;;;;;;;;;4964059;28;20602;-65
2022/07/10 00:44:52;;;;;;;13.68;1.85;;;;;;;;;;4960831;28;20055;-65
2022/07/10 00:47:20;;;;;;;13.05;2.30;;;;;;;;;;4964593;28;20053;-66
2022/07/10 00:49:47;;;;;;;12.13;2.05;;;;;;;;;;4964908;28;20043;-65
2022/07/10 00:52:16;;;;;;;9.27;1.63;;;;;;;;;;4964909;28;20059;-65
2022/07/10 00:54:45;;;;;;;11.88;1.60;;;;;;;;;;4962610;28;20053;-65
2022/07/10 00:57:14;;;;;;;7.82;1.60;;;;;;;;;;4964946;28;20509;-65
2022/07/10 00:59:41;;;;;;;8.63;1.98;;;;;;;;;;4961533;28;20082;-66
2022/07/10 01:02:08;;;;;;;12.77;1.58;;;;;;;;;;4962134;28;20410;-65
2022/07/10 01:04:36;;;;;;;10.55;1.25;;;;;;;;;;4947346;28;20055;-65
2022/07/10 01:07:03;;;;;;;8.30;1.20;;;;;;;;;;4964129;28;20557;-65
2022/07/10 01:09:31;;;;;;;7.65;1.60;;;;;;;;;;4945519;28;20050;-66
2022/07/10 01:12:01;;;;;;;9.55;1.40;;;;;;;;;;4964026;28;20161;-64
2022/07/10 01:14:28;;;;;;;9.35;1.50;;;;;;;;;;4962676;28;20061;-66
2022/07/10 01:16:56;;;;;;;8.27;1.50;;;;;;;;;;4965378;28;20059;-66
2022/07/10 01:19:23;;;;;;;6.80;1.20;;;;;;;;;;4964139;28;20097;-65
2022/07/10 01:21:51;;;;;;;15.68;1.40;;;;;;;;;;4964472;28;20054;-65
2022/07/10 01:24:19;;;;;;;13.38;1.45;;;;;;;;;;4965399;28;20077;-66
2022/07/10 01:26:46;;;;;;;8.48;1.40;;;;;;;;;;4963810;28;20050;-65
2022/07/10 01:29:13;;;;;;;8.50;1.27;;;;;;;;;;4963427;28;20051;-65
2022/07/10 01:31:41;;;;;;;5.65;1.02;;;;;;;;;;4961629;28;20063;-65
2022/07/10 01:34:09;;;;;;;4.85;0.90;;;;;;;;;;4964177;28;20665;-65
2022/07/10 01:36:36;;;;;;;6.38;1.25;;;;;;;;;;4963930;28;20091;-65
2022/07/10 01:39:05;;;;;;;8.07;1.42;;;;;;;;;;4964958;28;20055;-66
2022/07/10 01:41:32;;;;;;;6.60;1.30;;;;;;;;;;4946945;28;20725;-65
2022/07/10 01:43:59;;;;;;;10.65;1.33;;;;;;;;;;4945475;28;20117;-65
2022/07/10 01:46:27;;;;;;;11.77;1.30;;;;;;;;;;4964875;28;20387;-65
2022/07/10 01:48:54;;;;;;;15.13;2.22;;;;;;;;;;4963635;28;20062;-65
2022/07/10 01:51:21;;;;;;;10.85;1.67;;;;;;;;;;4945600;28;20058;-65
2022/07/10 01:53:49;;;;;;;10.32;1.52;;;;;;;;;;4964105;28;20050;-65
2022/07/10 01:56:17;;;;;;;10.05;1.50;;;;;;;;;;4966601;28;20740;-65
2022/07/10 01:58:45;;;;;;;6.70;1.40;;;;;;;;;;4963739;28;20062;-65
2022/07/10 02:01:12;;;;;;;9.80;1.40;;;;;;;;;;4964218;28;20046;-65
2022/07/10 02:06:24;;;;;;;10.75;1.63;;;;;;;;;;4965115;28;20050;-65
2022/07/10 02:08:51;;;;;;;7.80;1.80;;;;;;;;;;4964158;28;20433;-66
2022/07/10 02:11:20;;;;;;;12.57;1.92;;;;;;;;;;4946081;28;20058;-65
2022/07/10 02:13:47;;;;;;;13.40;2.28;;;;;;;;;;4961893;28;20057;-66
2022/07/10 02:16:14;;;;;;;15.68;1.70;;;;;;;;;;4963659;28;20054;-65
2022/07/10 02:18:42;;;;;;;10.20;1.63;;;;;;;;;;4957597;28;20105;-65
2022/07/10 02:21:09;;;;;;;10.65;2.15;;;;;;;;;;4962808;28;20050;-65
2022/07/10 02:23:36;;;;;;;10.10;1.60;;;;;;;;;;4961153;28;20117;-65
2022/07/10 02:26:03;;;;;;;7.10;1.38;;;;;;;;;;4962695;28;20058;-65
2022/07/10 02:28:32;;;;;;;14.18;1.85;;;;;;;;;;4958303;28;20055;-65
2022/07/10 02:30:59;;;;;;;9.63;1.63;;;;;;;;;;4961678;28;20172;-65
2022/07/10 02:33:27;;;;;;;14.00;1.90;;;;;;;;;;4960613;28;20494;-65
2022/07/10 02:35:54;;;;;;;9.55;1.70;;;;;;;;;;4962500;28;20101;-66
2022/07/10 02:38:21;;;;;;;11.35;1.60;;;;;;;;;;4964915;28;20462;-66
2022/07/10 02:40:48;;;;;;;13.05;2.47;;;;;;;;;;4981575;28;20046;-65
2022/07/10 02:43:15;;;;;;;15.70;1.95;;;;;;;;;;4964789;28;20054;-65
2022/07/10 02:45:44;;;;;;;8.93;1.80;;;;;;;;;;4984208;28;20112;-65
2022/07/10 02:48:11;;;;;;;13.07;1.90;;;;;;;;;;4977929;28;20102;-65
2022/07/10 02:50:38;;;;;;;10.55;1.90;;;;;;;;;;4969779;28;20050;-65
2022/07/10 02:53:06;;;;;;;7.43;1.67;;;;;;;;;;4967159;28;20050;-65
2022/07/10 02:55:33;;;;;;;9.30;1.48;;;;;;;;;;4982522;28;20053;-65
2022/07/10 02:58:01;;;;;;;11.23;2.15;;;;;;;;;;4981000;28;20112;-65
2022/07/10 03:00:28;;;;;;;13.35;2.33;;;;;;;;;;4983192;28;20046;-65
2022/07/10 03:02:57;;;;;;;11.13;1.85;;;;;;;;;;4981060;28;20050;-65
2022/07/10 03:05:24;;;;;;;15.77;2.08;;;;;;;;;;4980975;28;20053;-65
2022/07/10 03:07:51;;;;;;;10.38;1.75;;;;;;;;;;4982866;28;20105;-66
2022/07/10 03:10:18;;;;;;;9.07;1.75;;;;;;;;;;4981589;28;20117;-65
2022/07/10 03:12:46;;;;;;;11.95;2.08;;;;;;;;;;4982104;28;20038;-65
2022/07/10 03:15:14;;;;;;;12.50;1.98;;;;;;;;;;4979614;28;20655;-65
2022/07/10 03:17:41;;;;;;;12.10;2.30;;;;;;;;;;4982307;28;20096;-65
2022/07/10 03:20:10;;;;;;;9.73;1.95;;;;;;;;;;4981145;28;20053;-65
2022/07/10 03:22:38;;;;;;;9.55;2.00;;;;;;;;;;4982954;28;20100;-65
2022/07/10 03:25:06;;;;;;;12.10;2.50;;;;;;;;;;4982979;28;20062;-65
2022/07/10 03:27:33;;;;;;;9.88;1.92;;;;;;;;;;4981383;28;20489;-65
2022/07/10 03:30:00;;;;;;;17.38;2.58;;;;;;;;;;4982168;28;20909;-65
2022/07/10 03:32:27;;;;;;;14.23;2.00;;;;;;;;;;4980456;28;20652;-64
2022/07/10 03:34:54;;;;;;;10.82;2.30;;;;;;;;;;4982272;28;20120;-65
2022/07/10 03:37:23;;;;;;;15.35;2.80;;;;;;;;;;4981999;28;20050;-65
2022/07/10 03:39:50;;;;;;;15.63;2.88;;;;;;;;;;4980891;28;20050;-65
2022/07/10 03:42:17;;;;;;;16.02;2.53;;;;;;;;;;4980560;28;20061;-65
2022/07/10 03:44:45;;;;;;;13.15;2.75;;;;;;;;;;4981966;28;20047;-64
2022/07/10 03:47:12;;;;;;;12.02;2.30;;;;;;;;;;4981503;28;20077;-64
2022/07/10 03:49:39;;;;;;;16.23;2.35;;;;;;;;;;4980435;28;20070;-66
2022/07/10 03:52:07;;;;;;;12.98;2.33;;;;;;;;;;4981573;28;20089;-65
2022/07/10 03:54:36;;;;;;;14.15;2.47;;;;;;;;;;4965136;28;20054;-65
2022/07/10 03:59:48;;;;;;;19.75;3.13;;;;;;;;;;4980914;28;20042;-65
2022/07/10 04:02:15;;;;;;;12.07;2.75;;;;;;;;;;4981470;28;20050;-65
2022/07/10 04:04:42;;;;;;;13.52;2.42;;;;;;;;;;4981660;28;20452;-65
2022/07/10 04:07:10;;;;;;;12.25;2.05;;;;;;;;;;4978590;28;20062;-64
2022/07/10 04:09:39;;;;;;;14.50;1.80;;;;;;;;;;4984975;28;20057;-65
2022/07/10 04:12:07;;;;;;;16.58;2.53;;;;;;;;;;4982555;28;20050;-65
2022/07/10 04:14:34;;;;;;;22.73;2.15;;;;;;;;;;4984746;28;20113;-65
2022/07/10 04:17:01;;;;;;;14.73;2.05;;;;;;;;;;4983418;28;21381;-66
2022/07/10 04:19:28;;;;;;;13.00;2.15;;;;;;;;;;4978514;28;20046;-65
2022/07/10 04:21:55;;;;;;;13.27;1.98;;;;;;;;;;4966037;28;20050;-65
2022/07/10 04:24:23;;;;;;;11.68;2.17;;;;;;;;;;4982348;28;20046;-65
2022/07/10 04:26:51;;;;;;;14.27;2.28;;;;;;;;;;4981599;28;20061;-65
2022/07/10 04:29:18;;;;;;;11.23;2.15;;;;;;;;;;4968288;28;20057;-65
2022/07/10 04:31:46;;;;;;;13.95;2.45;;;;;;;;;;4983511;28;20074;-65
2022/07/10 04:34:13;;;;;;;11.20;2.30;;;;;;;;;;4985221;28;20412;-65
2022/07/10 04:36:40;;;;;;;11.75;2.05;;;;;;;;;;4984390;28;20100;-65
2022/07/10 04:39:07;;;;;;;10.00;1.80;;;;;;;;;;4986993;28;20094;-65
2022/07/10 04:41:35;;;;;;;15.52;2.38;;;;;;;;;;4987212;28;20043;-65
2022/07/10 04:44:03;;;;;;;13.50;2.35;;;;;;;;;;4969725;28;20077;-65
2022/07/10 04:46:30;;;;;;;12.68;2.50;;;;;;;;;;4986164;28;20179;-65
2022/07/10 04:48:57;;;;;;;14.98;2.70;;;;;;;;;;4984206;28;20054;-66
2022/07/10 04:51:25;;;;;;;13.20;2.33;;;;;;;;;;4984175;28;20050;-65
2022/07/10 04:53:52;;;;;;;16.73;3.20;;;;;;;;;;4983906;28;20056;-65
2022/07/10 04:56:19;;;;;;;11.77;2.45;;;;;;;;;;4983383;28;20501;-65
2022/07/10 04:58:46;;;;;;;13.75;2.08;;;;;;;;;;4983099;28;20602;-65
2022/07/10 05:01:15;;;;;;;15.70;2.30;;;;;;;;;;4985803;28;20046;-65
2022/07/10 05:03:42;;;;;;;17.92;2.95;;;;;;;;;;4985007;28;20621;-65
2022/07/10 05:06:09;;;;;;;13.48;2.60;;;;;;;;;;4981189;28;20058;-65
2022/07/10 05:08:37;;;;;;;15.25;2.70;;;;;;;;;;4983425;28;20058;-64
2022/07/10 05:11:04;;;;;;;10.50;2.10;;;;;;;;;;4968234;28;20076;-64
2022/07/10 05:13:31;;;;;;;9.85;2.20;;;;;;;;;;4984989;28;20053;-64
2022/07/10 05:15:58;;;;;;;15.13;2.50;;;;;;;;;;4965709;28;20148;-64
2022/07/10 05:18:27;;;;;;;13.23;2.75;;;;;;;;;;4982227;28;20112;-64
2022/07/10 05:20:54;;;;;;;19.17;2.38;;;;;;;;;;4982608;28;20097;-63
2022/07/10 05:23:21;;;;;;;13.02;2.42;;;;;;;;;;4981414;28;20105;-63
2022/07/10 05:25:48;;;;;;;12.52;2.30;;;;;;;;;;4981474;28;20054;-63
2022/07/10 05:28:15;;;;;;;12.50;2.17;;;;;;;;;;4983327;28;20047;-63
2022/07/10 05:30:43;;;;;;;12.85;2.40;;;;;;;;;;4982058;28;20038;-63
2022/07/10 05:33:10;;;;;;;16.77;3.00;;;;;;;;;;4980674;28;20047;-63
2022/07/10 05:35:39;;;;;;;11.40;2.40;;;;;;;;;;4985257;28;20054;-63
2022/07/10 05:38:06;;;;;;;9.07;2.03;;;;;;;;;;4982397;28;20113;-64
2022/07/10 05:40:33;;;;;;;11.93;2.53;;;;;;;;;;4967098;28;20054;-63
2022/07/10 05:43:01;;;;;;;13.80;2.50;;;;;;;;;;4961602;28;20497;-64
2022/07/10 05:45:28;;;;;;;13.98;2.25;;;;;;;;;;4949674;28;20243;-64
2022/07/10 05:47:55;;;;;;;19.92;3.35;;;;;;;;;;4964251;28;20750;-64
2022/07/10 05:50:23;;;;;;;11.82;1.90;;;;;;;;;;4965739;28;20577;-64
2022/07/10 05:52:51;;;;;;;15.52;2.05;;;;;;;;;;4953622;28;20118;-64
2022/07/10 05:55:18;;;;;;;12.80;2.22;;;;;;;;;;4964693;28;20049;-64
2022/07/10 05:57:45;;;;;;;9.05;1.50;;;;;;;;;;4963484;28;20050;-64
2022/07/10 06:00:14;;;;;;;8.80;1.48;;;;;;;;;;4963660;28;20114;-64
2022/07/10 06:02:41;;;;;;;5.97;1.48;;;;;;;;;;4969248;28;20047;-64
2022/07/10 06:05:09;;;;;;;4.05;1.15;;;;;;;;;;4945239;28;20062;-64
2022/07/10 06:07:36;;;;;;;8.50;1.48;;;;;;;;;;4953358;28;20050;-64
2022/07/10 06:10:06;;;;;;;6.28;1.10;;;;;;;;;;4947804;28;20054;-64
2022/07/10 06:12:33;;;;;;;9.15;1.52;;;;;;;;;;4965895;28;20490;-64
2022/07/10 06:15:01;;;;;;;7.47;1.67;;;;;;;;;;4963154;28;20070;-64
2022/07/10 06:17:28;;;;;;;12.75;1.58;;;;;;;;;;4949753;28;20715;-64
2022/07/10 06:19:55;;;;;;;10.85;1.52;;;;;;;;;;4953235;28;20050;-64
2022/07/10 06:22:31;;;;;;;5.07;1.33;;;;;;;;;;4964103;28;20074;-64
2022/07/10 06:24:59;;;;;;;9.73;1.40;;;;;;;;;;4960058;28;20759;-64
2022/07/10 06:27:28;;;;;;;12.05;1.80;;;;;;;;;;4962274;28;20047;-64
2022/07/10 06:29:55;;;;;;;10.77;1.40;;;;;;;;;;4943270;28;20109;-64
2022/07/10 06:32:24;;;;;;;4.13;1.02;;;;;;;;;;4960273;28;20051;-64
2022/07/10 06:34:51;;;;;;;3.40;1.00;;;;;;;;;;4960110;28;20082;-64
2022/07/10 06:37:18;;;;;;;5.25;1.10;;;;;;;;;;4964488;28;20065;-64
2022/07/10 06:39:46;;;;;;;8.02;1.65;;;;;;;;;;4963460;28;20509;-64
2022/07/10 06:42:14;;;;;;;11.45;1.90;;;;;;;;;;4963420;28;20046;-64
2022/07/10 06:44:42;;;;;;;5.82;1.50;;;;;;;;;;4962386;28;20105;-64
2022/07/10 06:49:55;;;;;;;8.25;1.67;;;;;;;;;;4964264;28;20054;-64
2022/07/10 06:52:23;;;;;;;7.32;1.60;;;;;;;;;;4961106;28;20062;-64
2022/07/10 06:54:50;;;;;;;14.40;1.80;;;;;;;;;;4959912;28;20051;-64
2022/07/10 06:57:18;;;;;;;9.60;1.75;;;;;;;;;;4963375;28;20102;-64
2022/07/10 06:59:47;;;;;;;7.40;1.42;;;;;;;;;;4961175;28;20101;-64
2022/07/10 07:02:14;;;;;;;8.68;1.90;;;;;;;;;;4963566;28;20465;-64
2022/07/10 07:04:42;;;;;;;8.02;1.98;;;;;;;;;;4964440;28;20054;-64
2022/07/10 07:07:09;;;;;;;11.48;1.88;;;;;;;;;;4947292;28;20513;-63
2022/07/10 07:09:36;;;;;;;11.38;1.90;;;;;;;;;;4965666;28;20058;-63
2022/07/10 07:12:04;;;;;;;11.55;2.10;;;;;;;;;;4966586;28;20183;-63
2022/07/10 07:14:31;;;;;;;8.88;1.73;;;;;;;;;;4963136;28;20404;-63
2022/07/10 07:17:03;;;;;;;9.48;1.88;;;;;;;;;;4971520;28;20042;-63
2022/07/10 07:23:09;;;;;;;8.38;1.60;;;;;;;;;;4946761;28;20058;-63
2022/07/10 07:25:05;;;;;;;10.27;2.17;;;;;;;;;;4962902;28;20055;-63
2022/07/10 07:27:34;;;;;;;7.47;1.45;;;;;;;;;;4963973;28;20050;-63
2022/07/10 07:30:03;;;;;;;7.63;1.70;;;;;;;;;;4950448;28;20054;-63
2022/07/10 07:32:31;;;;;;;11.45;1.70;;;;;;;;;;4964019;28;20557;-63
2022/07/10 07:34:59;;;;;;;8.88;1.63;;;;;;;;;;4963793;28;20054;-63
2022/07/10 07:37:35;;;;;;;10.57;1.60;;;;;;;;;;4965406;28;20098;-63
2022/07/10 07:40:03;;;;;;;7.63;1.60;;;;;;;;;;4972000;28;20513;-63
2022/07/10 07:42:30;;;;;;;6.75;2.00;;;;;;;;;;4985489;28;20685;-63
2022/07/10 07:44:57;;;;;;;6.43;1.65;;;;;;;;;;4984624;28;20042;-63
2022/07/10 07:47:24;;;;;;;12.43;3.75;;;;;;;;;;4986785;28;20046;-63
2022/07/10 07:49:53;;;;;;;6.28;2.55;;;;;;;;;;4982821;28;20073;-63
2022/07/10 07:52:20;;;;;;;7.03;1.85;;;;;;;;;;4985512;28;20104;-63
2022/07/10 07:54:47;;;;;;;8.90;3.60;;;;;;;;;;4986662;28;20045;-63
2022/07/10 07:57:14;;;;;;;9.32;1.90;;;;;;;;;;4983054;28;20736;-63
2022/07/10 07:59:42;;;;;;;9.73;1.95;;;;;;;;;;4983793;28;20047;-63
2022/07/10 08:02:09;;;;;;;8.05;1.77;;;;;;;;;;4988923;28;20092;-63
2022/07/10 08:04:36;;;;;;;11.82;2.30;;;;;;;;;;4985593;28;20054;-63
2022/07/10 08:07:05;;;;;;;15.98;10.05;;;;;;;;;;4984702;28;20136;-63
2022/07/10 08:09:32;;;;;;;12.63;3.88;;;;;;;;;;4981096;28;20053;-63
2022/07/10 08:11:59;;;;;;;8.98;2.00;;;;;;;;;;4982178;28;20223;-63
2022/07/10 08:14:27;;;;;;;11.30;2.58;;;;;;;;;;4985442;28;20046;-63
2022/07/10 08:16:54;;;;;;;9.25;1.92;;;;;;;;;;4983761;28;20050;-63
2022/07/10 08:19:21;;;;;;;7.85;1.58;;;;;;;;;;4985088;28;20602;-63
2022/07/10 08:21:48;;;;;;;10.65;1.60;;;;;;;;;;4983693;28;20070;-63
2022/07/10 08:24:17;;;;;;;4.55;1.60;;;;;;;;;;4985679;28;20482;-63
2022/07/10 08:26:44;;;;;;;9.18;1.90;;;;;;;;;;4985617;28;20120;-63
2022/07/10 08:29:11;;;;;;;9.98;1.45;;;;;;;;;;4967935;28;20058;-64
2022/07/10 08:31:39;;;;;;;7.03;1.73;;;;;;;;;;4984722;28;20541;-63
2022/07/10 08:34:07;;;;;;;8.40;1.73;;;;;;;;;;4976002;28;20134;-63
2022/07/10 08:36:34;;;;;;;8.50;1.50;;;;;;;;;;4985623;28;20085;-63
2022/07/10 08:39:01;;;;;;;9.23;1.67;;;;;;;;;;4983415;28;20617;-63
2022/07/10 08:41:30;;;;;;;5.50;1.55;;;;;;;;;;4967018;28;20059;-63
2022/07/10 08:43:58;;;;;;;9.23;2.20;;;;;;;;;;4984743;28;20607;-63
2022/07/10 08:46:26;;;;;;;7.22;2.03;;;;;;;;;;4985105;28;20054;-63
2022/07/10 08:48:55;;;;;;;71.45;48.42;;;;;;;;;;4981534;28;20670;-63
2022/07/10 08:51:26;;;;;;;52.10;28.58;;;;;;;;;;4979827;28;20451;-63
2022/07/10 08:53:54;;;;;;;174.23;96.68;;;;;;;;;;4983315;28;20150;-63
2022/07/10 08:56:21;;;;;;;15.23;5.50;;;;;;;;;;4984140;28;20050;-63
2022/07/10 08:58:51;;;;;;;10.70;1.80;;;;;;;;;;4985127;28;20521;-63
2022/07/10 09:01:22;;;;;;;7.43;1.60;;;;;;;;;;4984437;28;20413;-63
2022/07/10 09:03:50;;;;;;;8.82;1.63;;;;;;;;;;4984035;28;20054;-63
2022/07/10 09:06:17;;;;;;;7.22;1.60;;;;;;;;;;4981820;28;20154;-63
2022/07/10 09:08:59;;;;;;;8.73;2.35;;;;;;;;;;4984979;28;20434;-63
2022/07/10 09:11:28;;;;;;;8.20;1.65;;;;;;;;;;4984369;28;20061;-63
2022/07/10 09:13:58;;;;;;;7.38;1.42;;;;;;;;;;4983519;28;20081;-63
2022/07/10 09:16:26;;;;;;;7.90;1.65;;;;;;;;;;4984563;28;20125;-63
2022/07/10 09:18:54;;;;;;;8.85;1.88;;;;;;;;;;4978562;28;20129;-63
2022/07/10 09:21:21;;;;;;;10.20;1.92;;;;;;;;;;4977698;28;20460;-63
2022/07/10 09:23:49;;;;;;;10.57;2.28;;;;;;;;;;4984678;28;20464;-63
2022/07/10 09:26:18;;;;;;;8.02;1.88;;;;;;;;;;4984391;28;20061;-63
2022/07/10 09:28:45;;;;;;;11.20;1.70;;;;;;;;;;4968772;28;20686;-63
2022/07/10 09:31:14;;;;;;;8.15;1.65;;;;;;;;;;4983480;28;20054;-63
2022/07/10 09:33:41;;;;;;;9.38;1.83;;;;;;;;;;4984406;28;20085;-63
2022/07/10 09:36:10;;;;;;;3.47;1.10;;;;;;;;;;4987193;28;20054;-63
2022/07/10 09:39:04;;;;;;;5.60;1.63;;;;;;;;;;4982785;28;20062;-63
2022/07/10 09:41:32;;;;;;;7.28;1.50;;;;;;;;;;4981083;28;20042;-63
2022/07/10 09:44:01;;;;;;;7.78;1.52;;;;;;;;;;4983490;28;20046;-64
2022/07/10 09:46:32;;;;;;;7.53;1.67;;;;;;;;;;4970352;28;20042;-63
2022/07/10 09:49:07;;;;;;;9.30;1.58;;;;;;;;;;4983505;28;20062;-64
2022/07/10 09:51:35;;;;;;;6.15;1.83;;;;;;;;;;4971662;28;20050;-63
2022/07/10 09:54:03;;;;;;;10.55;1.75;;;;;;;;;;4983226;28;20452;-63
2022/07/10 09:56:34;;;;;;;9.57;1.50;;;;;;;;;;4982930;28;20145;-64
2022/07/10 09:59:02;;;;;;;11.68;1.88;;;;;;;;;;4980674;28;20051;-63
2022/07/10 10:01:30;;;;;;;9.60;1.73;;;;;;;;;;4982983;28;20062;-63
2022/07/10 10:04:01;;;;;;;10.70;1.83;;;;;;;;;;4980614;28;20125;-64
2022/07/10 10:06:31;;;;;;;8.10;1.75;;;;;;;;;;4982879;28;20137;-63
2022/07/10 10:09:03;;;;;;;9.88;2.30;;;;;;;;;;4982039;28;20422;-63
2022/07/10 10:11:32;;;;;;;11.52;2.67;;;;;;;;;;4982060;28;20054;-64
2022/07/10 10:13:59;;;;;;;10.02;2.30;;;;;;;;;;4982277;28;20093;-63
2022/07/10 10:16:27;;;;;;;10.82;1.88;;;;;;;;;;4982714;28;20766;-63
2022/07/10 10:21:41;;;;;;;8.75;1.58;;;;;;;;;;4978667;28;20646;-63
2022/07/10 10:24:09;;;;;;;8.85;1.80;;;;;;;;;;4982199;28;20062;-63
2022/07/10 10:26:37;;;;;;;8.25;1.65;;;;;;;;;;4981439;28;20065;-63
2022/07/10 10:29:06;;;;;;;6.65;1.40;;;;;;;;;;4979910;28;20101;-63
2022/07/10 10:31:33;;;;;;;8.20;1.30;;;;;;;;;;4982097;28;20673;-63
2022/07/10 10:34:02;;;;;;;10.32;1.38;;;;;;;;;;4981888;28;20190;-63
2022/07/10 10:36:45;;;;;;;6.75;1.38;;;;;;;;;;4980315;28;20132;-64
2022/07/10 10:39:13;;;;;;;;;;;;;;;;;;4982377;28;20144;-63
2022/07/10 10:41:40;;;;;;;5.47;1.23;;;;;;;;;;4980500;28;19925;-64
2022/07/10 10:44:31;;;;;;;9.00;1.88;;;;;;;;;;4981026;28;20077;-63
2022/07/10 10:47:05;;;;;;;6.97;1.55;;;;;;;;;;4981676;28;20162;-64
2022/07/10 10:49:53;;;;;;;5.85;1.42;;;;;;;;;;4982407;28;20062;-63
2022/07/10 10:52:21;;;;;;;8.20;1.13;;;;;;;;;;4979683;28;20160;-64
2022/07/10 10:55:03;;;;;;;5.97;1.20;;;;;;;;;;4982659;28;20055;-64
2022/07/10 10:57:44;;;;;;;8.35;1.40;;;;;;;;;;4982910;28;20078;-64
2022/07/10 11:00:14;;;;;;;6.45;1.40;;;;;;;;;;4977768;28;20054;-64
2022/07/10 11:02:42;;;;;;;7.72;1.45;;;;;;;;;;4982698;28;20238;-63
2022/07/10 11:05:29;;;;;;;4.25;1.25;;;;;;;;;;4978620;28;20085;-64
2022/07/10 11:07:58;;;;;;;8.63;1.85;;;;;;;;;;4982286;28;20818;-64
2022/07/10 11:10:29;;;;;;;7.15;1.20;;;;;;;;;;4983319;28;20137;-64
2022/07/10 11:12:59;;;;;;;11.63;2.15;;;;;;;;;;4984050;28;20047;-64
2022/07/10 11:15:26;;;;;;;6.82;1.40;;;;;;;;;;4982698;28;20069;-64
2022/07/10 11:17:54;;;;;;;5.15;1.17;;;;;;;;;;4983383;28;20081;-64
2022/07/10 11:20:22;;;;;;;5.15;1.30;;;;;;;;;;4982052;28;20046;-64
2022/07/10 11:22:54;;;;;;;6.32;1.80;;;;;;;;;;4981726;28;20050;-64
2022/07/10 11:25:35;;;;;;;5.72;1.63;;;;;;;;;;4983486;28;20108;-64
2022/07/10 11:28:08;;;;;;;4.13;1.42;;;;;;;;;;4981494;28;20050;-64
2022/07/10 11:30:44;;;;;;;7.70;1.70;;;;;;;;;;4982161;28;20046;-64
2022/07/10 11:33:12;;;;;;;6.15;1.83;;;;;;;;;;4978963;28;20042;-65
2022/07/10 11:35:39;;;;;;;3.80;1.40;;;;;;;;;;4966459;28;20073;-64
2022/07/10 11:38:07;;;;;;;6.22;1.40;;;;;;;;;;4974111;28;20498;-65
2022/07/10 11:40:38;;;;;;;5.43;1.30;;;;;;;;;;4978762;28;20114;-64
2022/07/10 11:43:09;;;;;;;5.43;1.27;;;;;;;;;;4977792;28;20093;-64
2022/07/10 11:45:38;;;;;;;4.18;1.20;;;;;;;;;;4975982;28;20053;-65
2022/07/10 11:48:07;;;;;;;6.72;1.48;;;;;;;;;;4983701;28;20050;-65
2022/07/10 11:50:37;;;;;;;6.68;1.20;;;;;;;;;;4980447;28;20038;-64
2022/07/10 11:53:05;;;;;;;7.05;1.27;;;;;;;;;;4978483;28;20046;-65
2022/07/10 11:55:36;;;;;;;5.25;1.30;;;;;;;;;;4983231;28;20501;-65
2022/07/10 11:58:15;;;;;;;6.00;1.52;;;;;;;;;;4979966;28;20058;-65
2022/07/10 12:00:42;;;;;;;4.00;1.27;;;;;;;;;;4970701;28;20050;-64
2022/07/10 12:03:20;;;;;;;7.15;1.30;;;;;;;;;;4981700;28;20489;-64
2022/07/10 12:05:48;;;;;;;7.68;1.60;;;;;;;;;;4984389;28;20082;-65
2022/07/10 12:08:16;;;;;;;6.18;1.67;;;;;;;;;;4980833;28;20481;-64
2022/07/10 12:10:43;;;;;;;6.32;1.42;;;;;;;;;;4978257;28;20061;-65
2022/07/10 12:13:11;;;;;;;3.92;0.95;;;;;;;;;;4981624;28;20129;-65
2022/07/10 12:15:41;;;;;;;4.43;1.45;;;;;;;;;;4983261;28;20513;-65
2022/07/10 12:18:08;;;;;;;5.20;1.20;;;;;;;;;;4979063;28;20049;-65
2022/07/10 12:20:36;;;;;;;7.57;1.40;;;;;;;;;;4979915;28;20053;-64
2022/07/10 12:23:05;;;;;;;7.28;1.23;;;;;;;;;;4965787;28;20073;-65
2022/07/10 12:25:32;;;;;;;6.28;1.30;;;;;;;;;;4982111;28;20843;-65
2022/07/10 12:27:59;;;;;;;6.65;1.00;;;;;;;;;;4981340;28;20105;-65
2022/07/10 12:30:41;;;;;;;5.70;1.10;;;;;;;;;;4985898;28;20054;-65
2022/07/10 12:33:15;;;;;;;5.18;1.23;;;;;;;;;;4973107;28;20565;-66
2022/07/10 12:35:49;;;;;;;5.70;1.20;;;;;;;;;;4985330;28;20185;-65
2022/07/10 12:38:18;;;;;;;4.30;1.15;;;;;;;;;;4990653;28;20133;-65
2022/07/10 12:40:45;;;;;;;6.53;1.13;;;;;;;;;;4985851;28;20054;-65
2022/07/10 12:43:13;;;;;;;7.47;1.60;;;;;;;;;;4980762;28;20125;-65
2022/07/10 12:45:41;;;;;;;5.35;1.23;;;;;;;;;;4992265;28;20057;-65
2022/07/10 12:48:08;;;;;;;4.88;1.17;;;;;;;;;;4989873;28;20069;-65
2022/07/10 12:50:36;;;;;;;5.55;1.10;;;;;;;;;;4983565;28;20058;-65
2022/07/10 12:53:11;;;;;;;5.50;1.20;;;;;;;;;;4987654;28;20112;-65
2022/07/10 12:55:38;;;;;;;2.50;0.90;;;;;;;;;;4987615;28;20057;-65
2022/07/10 12:58:11;;;;;;;3.97;1.15;;;;;;;;;;4988409;28;20050;-65
2022/07/10 13:00:45;;;;;;;5.00;1.20;;;;;;;;;;4987397;28;20038;-65
2022/07/10 13:03:14;;;;;;;8.88;1.38;;;;;;;;;;4987946;28;20057;-65
2022/07/10 13:05:44;;;;;;;4.20;1.13;;;;;;;;;;4991410;28;20541;-65
2022/07/10 13:08:12;;;;;;;5.93;0.90;;;;;;;;;;4972578;28;20567;-66
2022/07/10 13:10:40;;;;;;;5.18;1.40;;;;;;;;;;4993581;28;20089;-65
2022/07/10 13:13:08;;;;;;;4.65;1.20;;;;;;;;;;4985099;28;20086;-66
2022/07/10 13:15:39;;;;;;;5.90;1.70;;;;;;;;;;4987401;28;20129;-66
2022/07/10 13:18:07;;;;;;;8.63;1.38;;;;;;;;;;4984450;28;20073;-65
2022/07/10 13:20:34;;;;;;;4.88;1.27;;;;;;;;;;4968233;28;20378;-65
2022/07/10 13:23:03;;;;;;;7.85;1.52;;;;;;;;;;4983897;28;20046;-65
2022/07/10 13:25:30;;;;;;;6.93;1.30;;;;;;;;;;4984712;28;20460;-65
2022/07/10 13:27:57;;;;;;;6.50;1.25;;;;;;;;;;4983605;28;20046;-65
2022/07/10 13:30:24;;;;;;;4.07;1.40;;;;;;;;;;4984046;28;20050;-65
2022/07/10 13:32:51;;;;;;;9.07;1.17;;;;;;;;;;4981867;28;20059;-65
2022/07/10 13:35:19;;;;;;;5.20;1.48;;;;;;;;;;4985482;28;20481;-65
2022/07/10 13:37:46;;;;;;;4.68;1.13;;;;;;;;;;4983182;28;20172;-66
2022/07/10 13:40:15;;;;;;;5.53;1.42;;;;;;;;;;4983233;28;20069;-65
2022/07/10 13:42:42;;;;;;;4.95;1.45;;;;;;;;;;4984308;28;20043;-66
2022/07/10 13:45:10;;;;;;;6.57;1.40;;;;;;;;;;4982275;28;20050;-66
2022/07/10 13:47:37;;;;;;;4.90;1.40;;;;;;;;;;4978838;28;20054;-65
2022/07/10 13:50:04;;;;;;;4.25;1.20;;;;;;;;;;4983967;28;20124;-66
2022/07/10 13:52:31;;;;;;;7.47;1.30;;;;;;;;;;4983611;28;20794;-65
2022/07/10 13:54:59;;;;;;;5.63;1.20;;;;;;;;;;4983511;28;20054;-66
2022/07/10 13:57:27;;;;;;;4.07;1.30;;;;;;;;;;4984003;28;20047;-65
2022/07/10 13:59:55;;;;;;;9.73;1.50;;;;;;;;;;4983222;28;20057;-65
2022/07/10 14:02:22;;;;;;;4.43;1.48;;;;;;;;;;4985328;28;20050;-66
2022/07/10 14:04:49;;;;;;;4.78;1.33;;;;;;;;;;4970848;28;20050;-65
2022/07/10 14:07:16;;;;;;;5.90;1.52;;;;;;;;;;4981209;28;20090;-65
2022/07/10 14:09:44;;;;;;;5.00;1.30;;;;;;;;;;4984047;28;20046;-65
2022/07/10 14:12:12;;;;;;;4.90;1.20;;;;;;;;;;4982297;28;20100;-66
2022/07/10 14:14:40;;;;;;;4.50;1.00;;;;;;;;;;4985135;28;20509;-66
2022/07/10 14:17:07;;;;;;;6.40;1.30;;;;;;;;;;4982562;28;20058;-66
2022/07/10 14:19:35;;;;;;;3.67;1.30;;;;;;;;;;4970202;28;20054;-66
2022/07/10 14:22:02;;;;;;;4.78;1.52;;;;;;;;;;4981728;28;20152;-65
2022/07/10 14:24:29;;;;;;;4.25;1.58;;;;;;;;;;4983483;28;20069;-66
2022/07/10 14:26:57;;;;;;;5.10;1.73;;;;;;;;;;4982238;28;20054;-66
2022/07/10 14:29:24;;;;;;;6.68;1.92;;;;;;;;;;4979759;28;20057;-65
2022/07/10 14:31:52;;;;;;;4.25;1.48;;;;;;;;;;4983118;28;20058;-65
2022/07/10 14:34:20;;;;;;;6.35;1.52;;;;;;;;;;4982506;28;20065;-66
2022/07/10 14:36:47;;;;;;;5.05;1.48;;;;;;;;;;4962602;28;20062;-65
2022/07/10 14:39:14;;;;;;;6.78;1.80;;;;;;;;;;4982065;28;20068;-65
2022/07/10 14:41:41;;;;;;;9.57;1.98;;;;;;;;;;4981709;28;20146;-66
2022/07/10 14:44:09;;;;;;;7.40;2.20;;;;;;;;;;4980426;28;21140;-65
2022/07/10 14:46:36;;;;;;;6.85;2.08;;;;;;;;;;4982979;28;20054;-66
2022/07/10 14:49:04;;;;;;;6.38;2.13;;;;;;;;;;4981710;28;20108;-65
2022/07/10 14:51:34;;;;;;;7.75;1.85;;;;;;;;;;4982407;28;20062;-65
2022/07/10 14:54:01;;;;;;;5.60;1.50;;;;;;;;;;4982285;28;20051;-66
2022/07/10 14:56:28;;;;;;;8.38;1.70;;;;;;;;;;4983267;28;20054;-66
2022/07/10 14:58:56;;;;;;;5.93;1.60;;;;;;;;;;4981160;28;20783;-66